createdAt,value
2018-06-08T00:01:00.676Z,19.96
2018-06-08T00:03:29.112Z,19.94
2018-06-08T00:05:57.549Z,19.79
2018-06-08T00:08:26.033Z,19.62
2018-06-08T00:10:54.452Z,19.57
2018-06-08T00:13:22.876Z,19.63
2018-06-08T00:15:51.659Z,19.64
2018-06-08T00:18:20.630Z,19.60
2018-06-08T00:20:49.147Z,19.36
2018-06-08T00:23:17.568Z,19.49
2018-06-08T00:25:46.326Z,19.54
2018-06-08T00:28:14.787Z,19.43
2018-06-08T00:30:43.240Z,19.29
2018-06-08T00:33:11.670Z,19.31
2018-06-08T00:35:40.080Z,19.46
2018-06-08T00:38:08.539Z,19.44
2018-06-08T00:40:37.142Z,19.39
2018-06-08T00:43:05.718Z,19.28
2018-06-08T00:45:34.351Z,19.08
2018-06-08T00:48:03.055Z,19.11
2018-06-08T00:50:31.495Z,19.30
2018-06-08T00:53:00.328Z,19.10
2018-06-08T00:55:29.156Z,19.09
2018-06-08T00:57:57.582Z,19.12
2018-06-08T01:00:26.020Z,19.07
2018-06-08T01:02:54.434Z,19.02
2018-06-08T01:05:22.876Z,19.14
2018-06-08T01:07:51.348Z,19.02
2018-06-08T01:10:19.820Z,18.98
2018-06-08T01:12:48.266Z,18.94
2018-06-08T01:15:17.444Z,18.89
2018-06-08T01:17:45.928Z,18.86
2018-06-08T01:20:14.331Z,18.80
2018-06-08T01:22:42.952Z,18.82
2018-06-08T01:25:11.332Z,18.76
2018-06-08T01:27:40.158Z,18.74
2018-06-08T01:30:08.865Z,18.72
2018-06-08T01:32:37.819Z,18.71
2018-06-08T01:35:07.444Z,18.65
2018-06-08T01:37:36.379Z,18.61
2018-06-08T01:40:04.913Z,18.53
2018-06-08T01:42:33.773Z,18.53
2018-06-08T01:45:02.217Z,18.46
2018-06-08T01:47:30.658Z,18.42
2018-06-08T01:49:59.072Z,18.49
2018-06-08T01:52:27.532Z,18.42
2018-06-08T01:54:56.057Z,18.43
2018-06-08T01:57:24.636Z,18.40
2018-06-08T01:59:53.111Z,18.36
2018-06-08T02:02:21.594Z,18.20
2018-06-08T02:04:50.679Z,18.22
2018-06-08T02:07:19.082Z,18.32
2018-06-08T02:09:47.500Z,18.34
2018-06-08T02:12:15.939Z,18.26
2018-06-08T02:14:44.584Z,18.18
2018-06-08T02:17:13.196Z,18.19
2018-06-08T02:19:41.684Z,18.17
2018-06-08T02:22:10.299Z,18.20
2018-06-08T02:24:38.744Z,18.25
2018-06-08T02:27:07.240Z,18.14
2018-06-08T02:29:35.676Z,18.15
2018-06-08T02:32:04.124Z,18.26
2018-06-08T02:34:32.620Z,18.13
2018-06-08T02:37:01.064Z,18.08
2018-06-08T02:39:29.529Z,18.07
2018-06-08T02:41:58.200Z,18.04
2018-06-08T02:44:26.974Z,17.96
2018-06-08T02:46:55.493Z,17.92
2018-06-08T02:49:24.044Z,18.03
2018-06-08T02:51:52.491Z,20.86
2018-06-08T02:54:20.879Z,20.89
2018-06-08T03:03:33.803Z,20.96
2018-06-08T03:06:02.236Z,20.08
2018-06-08T03:08:30.639Z,20.13
2018-06-08T03:10:59.084Z,20.97
2018-06-08T03:13:27.509Z,21.63
2018-06-08T03:15:56.499Z,21.47
2018-06-08T03:18:25.483Z,20.86
2018-06-08T03:20:54.017Z,20.69
2018-06-08T03:23:23.092Z,20.27
2018-06-08T03:25:51.870Z,20.43
2018-06-08T03:28:20.514Z,20.71
2018-06-08T03:30:49.343Z,18.93
2018-06-08T03:33:19.276Z,18.51
2018-06-08T03:35:48.187Z,18.51
2018-06-08T03:38:16.614Z,18.80
2018-06-08T03:40:45.332Z,18.57
2018-06-08T03:43:13.844Z,18.72
2018-06-08T03:45:42.327Z,18.74
2018-06-08T03:48:11.142Z,18.81
2018-06-08T03:50:39.603Z,18.67
2018-06-08T03:53:08.457Z,18.53
2018-06-08T03:55:36.959Z,18.57
2018-06-08T03:58:06.031Z,18.67
2018-06-08T04:00:35.139Z,18.73
2018-06-08T04:03:04.367Z,18.69
2018-06-08T04:05:33.532Z,18.74
2018-06-08T04:08:02.144Z,18.66
2018-06-08T04:10:31.328Z,18.66
2018-06-08T04:13:00.065Z,18.80
2018-06-08T04:15:28.534Z,18.87
2018-06-08T04:17:57.104Z,19.07
2018-06-08T04:20:26.194Z,19.06
2018-06-08T04:22:55.507Z,19.21
2018-06-08T04:25:23.968Z,19.41
2018-06-08T04:27:53.336Z,19.74
2018-06-08T04:30:22.033Z,19.94
2018-06-08T04:32:50.631Z,20.04
2018-06-08T04:35:19.050Z,20.11
2018-06-08T04:37:47.461Z,20.35
2018-06-08T04:40:15.921Z,20.47
2018-06-08T04:42:44.373Z,20.33
2018-06-08T04:45:12.825Z,20.45
2018-06-08T04:47:41.278Z,20.51
2018-06-08T04:50:09.701Z,20.19
2018-06-08T04:52:38.103Z,20.25
2018-06-08T04:55:06.530Z,20.14
2018-06-08T04:57:34.954Z,20.67
2018-06-08T05:00:03.415Z,20.72
2018-06-08T05:02:31.830Z,20.38
2018-06-08T05:05:00.235Z,20.91
2018-06-08T05:07:28.676Z,20.86
2018-06-08T05:09:57.118Z,20.92
2018-06-08T05:12:25.546Z,20.93
2018-06-08T05:14:53.942Z,21.09
2018-06-08T05:17:22.399Z,21.48
2018-06-08T05:19:50.843Z,21.39
2018-06-08T05:22:19.260Z,21.52
2018-06-08T05:24:47.703Z,21.00
2018-06-08T05:27:16.115Z,21.35
2018-06-08T05:29:45.019Z,21.21
2018-06-08T05:32:13.433Z,21.44
2018-06-08T05:34:41.876Z,21.76
2018-06-08T05:43:54.502Z,21.70
2018-06-08T05:46:22.936Z,22.28
2018-06-08T05:48:51.378Z,22.54
2018-06-08T05:51:19.796Z,22.65
2018-06-08T05:53:48.310Z,22.34
2018-06-08T05:56:16.870Z,22.44
2018-06-08T05:58:45.288Z,22.41
2018-06-08T06:01:13.743Z,22.48
2018-06-08T06:03:42.152Z,22.58
2018-06-08T06:06:10.586Z,22.37
2018-06-08T06:08:38.995Z,22.44
2018-06-08T06:11:07.403Z,22.69
2018-06-08T06:13:35.877Z,22.71
2018-06-08T06:16:04.303Z,23.03
2018-06-08T06:18:32.750Z,22.92
2018-06-08T06:21:01.206Z,22.60
2018-06-08T06:23:29.639Z,22.66
2018-06-08T06:25:58.062Z,22.89
2018-06-08T06:28:26.543Z,22.99
2018-06-08T06:30:54.982Z,23.08
2018-06-08T06:33:23.403Z,22.95
2018-06-08T06:35:51.868Z,22.65
2018-06-08T06:38:20.275Z,22.97
2018-06-08T06:40:48.987Z,22.76
2018-06-08T06:43:17.422Z,23.14
2018-06-08T06:45:45.894Z,23.39
2018-06-08T06:48:14.355Z,23.23
2018-06-08T06:50:42.784Z,23.45
2018-06-08T06:53:11.661Z,23.65
2018-06-08T06:55:40.111Z,23.63
2018-06-08T06:58:08.519Z,23.42
2018-06-08T07:00:37.057Z,23.65
2018-06-08T07:03:05.524Z,23.55
2018-06-08T07:05:33.934Z,23.30
2018-06-08T07:08:02.422Z,23.73
2018-06-08T07:10:30.884Z,23.88
2018-06-08T07:12:59.338Z,24.31
2018-06-08T07:15:27.765Z,24.51
2018-06-08T07:17:56.223Z,24.54
2018-06-08T07:20:24.623Z,24.59
2018-06-08T07:22:53.093Z,25.08
2018-06-08T07:25:21.563Z,24.47
2018-06-08T07:27:49.979Z,24.88
2018-06-08T07:30:18.511Z,24.99
2018-06-08T07:32:46.933Z,25.22
2018-06-08T07:35:15.396Z,24.82
2018-06-08T07:37:43.779Z,24.99
2018-06-08T07:40:12.211Z,25.28
2018-06-08T07:42:40.679Z,25.49
2018-06-08T07:45:09.097Z,24.35
2018-06-08T07:47:37.555Z,24.17
2018-06-08T07:50:05.998Z,24.55
2018-06-08T07:52:34.512Z,24.52
2018-06-08T07:55:02.909Z,24.78
2018-06-08T07:57:31.348Z,25.06
2018-06-08T07:59:59.906Z,24.84
2018-06-08T08:02:28.319Z,24.89
2018-06-08T08:04:56.804Z,25.07
2018-06-08T08:07:25.249Z,25.41
2018-06-08T08:09:53.683Z,25.25
2018-06-08T08:12:22.084Z,24.45
2018-06-08T08:14:50.775Z,24.36
2018-06-08T08:17:19.220Z,24.80
2018-06-08T08:19:47.626Z,24.55
2018-06-08T08:22:16.063Z,24.85
2018-06-08T08:24:44.647Z,24.98
2018-06-08T08:27:13.303Z,25.41
2018-06-08T08:29:41.744Z,25.41
2018-06-08T08:32:10.223Z,25.42
2018-06-08T08:34:38.652Z,25.23
2018-06-08T08:37:07.167Z,25.78
2018-06-08T08:39:35.605Z,26.06
2018-06-08T08:42:04.041Z,25.59
2018-06-08T08:44:32.443Z,25.77
2018-06-08T08:47:00.870Z,25.71
2018-06-08T08:49:29.302Z,26.08
2018-06-08T08:51:57.745Z,26.29
2018-06-08T08:54:26.225Z,26.47
2018-06-08T08:56:54.733Z,25.96
2018-06-08T08:59:23.071Z,26.75
2018-06-08T09:01:51.525Z,25.75
2018-06-08T09:04:19.936Z,26.38
2018-06-08T09:06:48.378Z,26.88
2018-06-08T09:09:17.029Z,26.63
2018-06-08T09:11:45.487Z,27.32
2018-06-08T09:14:13.896Z,27.42
2018-06-08T09:18:11.472Z,27.16
2018-06-08T09:20:39.931Z,27.42
2018-06-08T09:23:08.413Z,27.20
2018-06-08T09:25:36.800Z,27.31
2018-06-08T09:28:05.422Z,27.55
2018-06-08T09:30:33.886Z,27.68
2018-06-08T09:33:02.313Z,26.61
2018-06-08T09:35:30.783Z,26.56
2018-06-08T09:37:59.193Z,27.09
2018-06-08T09:40:27.625Z,26.59
2018-06-08T09:42:56.051Z,27.55
2018-06-08T09:45:24.695Z,27.63
2018-06-08T09:47:53.449Z,28.26
2018-06-08T09:50:21.843Z,27.21
2018-06-08T09:52:50.275Z,28.20
2018-06-08T09:55:18.837Z,27.96
2018-06-08T09:57:47.239Z,27.72
2018-06-08T10:00:19.791Z,27.34
2018-06-08T10:02:48.208Z,28.25
2018-06-08T10:05:16.650Z,28.57
2018-06-08T10:07:45.360Z,27.93
2018-06-08T10:10:13.788Z,29.23
2018-06-08T10:12:42.207Z,28.37
2018-06-08T10:15:10.816Z,28.20
2018-06-08T10:17:39.256Z,28.58
2018-06-08T10:20:07.707Z,28.66
2018-06-08T10:22:36.122Z,29.59
2018-06-08T10:25:04.938Z,30.02
2018-06-08T10:27:33.364Z,30.13
2018-06-08T10:30:01.758Z,30.63
2018-06-08T10:32:30.415Z,30.42
2018-06-08T10:34:58.812Z,30.43
2018-06-08T10:37:27.277Z,30.86
2018-06-08T10:39:55.885Z,30.50
2018-06-08T10:42:24.260Z,30.58
2018-06-08T10:44:52.676Z,30.93
2018-06-08T10:47:21.063Z,30.03
2018-06-08T10:49:49.511Z,30.53
2018-06-08T10:52:18.068Z,30.95
2018-06-08T10:54:46.932Z,31.36
2018-06-08T10:57:15.357Z,30.51
2018-06-08T10:59:44.247Z,30.53
2018-06-08T11:02:12.675Z,30.81
2018-06-08T11:04:41.080Z,31.50
2018-06-08T11:07:09.543Z,31.69
2018-06-08T11:09:37.962Z,31.11
2018-06-08T11:12:06.781Z,31.11
2018-06-08T11:14:35.252Z,31.13
2018-06-08T11:17:03.710Z,30.64
2018-06-08T11:21:01.294Z,29.79
2018-06-08T11:23:29.885Z,29.85
2018-06-08T11:25:58.336Z,30.46
2018-06-08T11:28:26.990Z,31.88
2018-06-08T11:30:55.387Z,31.39
2018-06-08T11:33:23.799Z,31.03
2018-06-08T11:35:52.207Z,32.93
2018-06-08T11:38:20.707Z,32.72
2018-06-08T11:40:49.134Z,33.44
2018-06-08T11:43:17.512Z,32.55
2018-06-08T11:45:45.954Z,33.29
2018-06-08T11:48:14.701Z,33.22
2018-06-08T11:50:43.133Z,34.21
2018-06-08T11:53:11.570Z,33.95
2018-06-08T11:55:40.016Z,33.86
2018-06-08T11:58:08.391Z,33.48
2018-06-08T12:00:36.857Z,33.20
2018-06-08T12:03:05.295Z,33.85
2018-06-08T12:05:33.731Z,33.12
2018-06-08T12:08:02.147Z,34.17
2018-06-08T12:10:30.587Z,33.84
2018-06-08T12:12:59.032Z,34.89
2018-06-08T12:15:28.024Z,36.03
2018-06-08T12:17:56.475Z,33.64
2018-06-08T12:20:25.149Z,35.83
2018-06-08T12:22:53.556Z,36.16
2018-06-08T12:25:21.999Z,34.60
2018-06-08T12:27:50.420Z,34.68
2018-06-08T12:30:18.932Z,35.80
2018-06-08T12:32:47.352Z,38.22
2018-06-08T12:35:15.759Z,36.99
2018-06-08T12:37:44.243Z,33.98
2018-06-08T12:40:12.790Z,33.63
2018-06-08T12:42:41.215Z,34.91
2018-06-08T12:45:09.656Z,34.07
2018-06-08T12:47:38.068Z,34.64
2018-06-08T12:50:06.923Z,35.42
2018-06-08T12:52:35.363Z,35.78
2018-06-08T12:55:03.783Z,35.04
2018-06-08T12:57:32.179Z,35.05
2018-06-08T13:00:00.578Z,35.99
2018-06-08T13:02:29.209Z,35.91
2018-06-08T13:04:57.611Z,35.96
2018-06-08T13:07:26.036Z,35.96
2018-06-08T13:09:54.460Z,36.65
2018-06-08T13:12:23.161Z,36.42
2018-06-08T13:14:51.688Z,34.64
2018-06-08T13:17:20.076Z,35.22
2018-06-08T13:19:48.532Z,37.08
2018-06-08T13:22:16.928Z,36.48
2018-06-08T13:24:45.296Z,36.99
2018-06-08T13:27:13.894Z,36.76
2018-06-08T13:29:42.300Z,35.85
2018-06-08T13:32:10.740Z,37.17
2018-06-08T13:34:39.342Z,37.73
2018-06-08T13:37:07.766Z,37.60
2018-06-08T13:39:36.267Z,36.93
2018-06-08T13:42:05.068Z,34.85
2018-06-08T13:44:33.806Z,37.56
2018-06-08T13:47:02.234Z,37.39
2018-06-08T13:49:30.846Z,39.11
2018-06-08T13:51:59.268Z,36.14
2018-06-08T13:54:27.699Z,37.11
2018-06-08T13:56:56.143Z,38.09
2018-06-08T13:59:25.490Z,38.86
2018-06-08T14:01:53.935Z,37.29
2018-06-08T14:04:22.546Z,36.30
2018-06-08T14:06:50.980Z,38.42
2018-06-08T14:09:19.384Z,37.66
2018-06-08T14:11:47.768Z,38.16
2018-06-08T14:14:16.405Z,37.05
2018-06-08T14:16:44.867Z,38.88
2018-06-08T14:19:13.332Z,38.26
2018-06-08T14:21:41.746Z,38.41
2018-06-08T14:24:10.379Z,39.00
2018-06-08T14:26:38.803Z,38.18
2018-06-08T14:29:07.424Z,38.13
2018-06-08T14:31:36.116Z,37.62
2018-06-08T14:34:04.552Z,37.77
2018-06-08T14:36:32.992Z,38.59
2018-06-08T14:39:01.363Z,39.59
2018-06-08T14:41:29.800Z,35.93
2018-06-08T14:43:58.339Z,37.65
2018-06-08T14:46:26.747Z,37.74
2018-06-08T14:48:55.727Z,38.09
2018-06-08T14:51:24.238Z,39.93
2018-06-08T14:53:52.827Z,37.94
2018-06-08T14:56:21.320Z,35.88
2018-06-08T14:58:49.879Z,37.01
2018-06-08T15:01:18.623Z,39.35
2018-06-08T15:03:47.035Z,38.11
2018-06-08T15:06:15.458Z,38.39
2018-06-08T15:08:43.945Z,39.44
2018-06-08T15:11:12.421Z,39.84
2018-06-08T15:13:40.850Z,38.49
2018-06-08T15:16:09.453Z,39.14
2018-06-08T15:18:37.918Z,38.53
2018-06-08T15:21:06.656Z,38.84
2018-06-08T15:23:36.008Z,37.37
2018-06-08T15:26:04.575Z,36.97
2018-06-08T15:28:33.170Z,36.53
2018-06-08T15:31:02.056Z,38.54
2018-06-08T15:33:30.540Z,37.81
2018-06-08T15:35:59.131Z,37.32
2018-06-08T15:38:27.582Z,39.73
2018-06-08T15:40:55.950Z,38.84
2018-06-08T15:43:24.874Z,38.89
2018-06-08T15:45:53.283Z,38.67
2018-06-08T15:48:21.792Z,38.03
2018-06-08T15:50:50.471Z,38.16
2018-06-08T15:53:18.867Z,37.39
2018-06-08T15:55:48.012Z,38.68
2018-06-08T15:58:16.432Z,37.31
2018-06-08T16:00:44.879Z,38.43
2018-06-08T16:03:13.755Z,37.37
2018-06-08T16:05:42.199Z,37.47
2018-06-08T16:08:10.607Z,37.64
2018-06-08T16:10:39.063Z,37.90
2018-06-08T16:13:07.459Z,37.26
2018-06-08T16:15:35.843Z,38.42
2018-06-08T16:18:04.788Z,36.72
2018-06-08T16:20:33.243Z,35.93
2018-06-08T16:23:01.622Z,37.43
2018-06-08T16:25:30.071Z,35.87
2018-06-08T16:27:58.628Z,36.76
2018-06-08T16:30:27.078Z,38.28
2018-06-08T16:32:55.476Z,36.11
2018-06-08T16:35:23.900Z,35.47
2018-06-08T16:37:52.336Z,35.66
2018-06-08T16:40:20.879Z,34.81
2018-06-08T16:42:49.718Z,34.15
2018-06-08T16:45:18.159Z,33.68
2018-06-08T16:47:46.592Z,33.57
2018-06-08T16:50:15.044Z,32.45
2018-06-08T16:52:43.461Z,32.87
2018-06-08T16:55:11.886Z,32.84
2018-06-08T16:57:40.295Z,32.19
2018-06-08T17:00:08.706Z,32.60
2018-06-08T17:02:37.131Z,32.44
2018-06-08T17:05:05.895Z,33.16
2018-06-08T17:07:34.335Z,32.72
2018-06-08T17:10:02.742Z,32.89
2018-06-08T17:12:31.834Z,32.35
2018-06-08T17:15:00.647Z,31.67
2018-06-08T17:17:29.352Z,31.38
2018-06-08T17:19:57.763Z,30.89
2018-06-08T17:22:26.160Z,31.16
2018-06-08T17:24:54.605Z,30.70
2018-06-08T17:27:23.012Z,30.66
2018-06-08T17:29:51.521Z,30.48
2018-06-08T17:32:20.285Z,30.27
2018-06-08T17:34:48.688Z,30.42
2018-06-08T17:37:17.115Z,30.58
2018-06-08T17:39:45.554Z,30.45
2018-06-08T17:42:14.072Z,30.36
2018-06-08T17:44:42.464Z,30.39
2018-06-08T17:47:10.926Z,30.11
2018-06-08T17:49:39.407Z,30.16
2018-06-08T17:52:07.871Z,30.16
2018-06-08T17:54:36.291Z,29.94
2018-06-08T17:57:05.010Z,29.69
2018-06-08T17:59:33.423Z,29.57
2018-06-08T18:02:02.109Z,29.29
2018-06-08T18:04:30.544Z,29.21
2018-06-08T18:06:58.956Z,29.02
2018-06-08T18:09:27.343Z,29.05
2018-06-08T18:11:55.808Z,29.04
2018-06-08T18:14:24.257Z,28.90
2018-06-08T18:16:52.968Z,28.95
2018-06-08T18:19:21.458Z,28.79
2018-06-08T18:21:50.021Z,28.86
2018-06-08T18:24:18.438Z,28.59
2018-06-08T18:26:46.877Z,28.57
2018-06-08T18:29:15.448Z,28.56
2018-06-08T18:31:43.948Z,28.61
2018-06-08T18:34:12.382Z,28.42
2018-06-08T18:36:40.858Z,28.36
2018-06-08T18:39:09.455Z,28.44
2018-06-08T18:41:37.872Z,28.39
2018-06-08T18:44:06.393Z,28.26
2018-06-08T18:46:34.805Z,28.29
2018-06-08T18:49:03.228Z,28.19
2018-06-08T18:51:31.704Z,28.29
2018-06-08T18:54:00.176Z,28.17
2018-06-08T18:56:28.697Z,28.18
2018-06-08T18:58:57.081Z,28.08
2018-06-08T19:01:25.544Z,28.10
2018-06-08T19:03:53.990Z,28.10
2018-06-08T19:06:22.482Z,28.13
2018-06-08T19:08:50.902Z,28.01
2018-06-08T19:11:19.564Z,28.10
2018-06-08T19:13:48.220Z,28.13
2018-06-08T19:16:16.995Z,27.87
2018-06-08T19:18:45.452Z,27.31
2018-06-08T19:21:13.881Z,27.58
2018-06-08T19:23:42.299Z,27.36
2018-06-08T19:26:10.748Z,27.44
2018-06-08T19:28:39.155Z,27.10
2018-06-08T19:31:07.820Z,27.10
2018-06-08T19:33:36.227Z,27.00
2018-06-08T19:36:04.680Z,27.09
2018-06-08T19:38:33.209Z,27.07
2018-06-08T19:41:01.673Z,26.94
2018-06-08T19:43:30.302Z,27.09
2018-06-08T19:45:58.720Z,27.20
2018-06-08T19:48:27.182Z,27.12
2018-06-08T19:50:56.055Z,27.11
2018-06-08T19:53:24.517Z,26.87
2018-06-08T19:55:53.144Z,26.94
2018-06-08T19:58:21.687Z,26.98
2018-06-08T20:00:50.146Z,26.82
2018-06-08T20:03:18.601Z,26.70
2018-06-08T20:05:47.039Z,26.55
2018-06-08T20:08:15.451Z,26.46
2018-06-08T20:10:43.908Z,26.22
2018-06-08T20:13:12.344Z,26.02
2018-06-08T20:15:40.768Z,25.99
2018-06-08T20:18:09.230Z,25.97
2018-06-08T20:20:38.067Z,26.12
2018-06-08T20:23:06.526Z,26.06
2018-06-08T20:25:34.974Z,26.17
2018-06-08T20:28:03.368Z,26.04
2018-06-08T20:30:31.841Z,25.97
2018-06-08T20:33:00.282Z,25.93
2018-06-08T20:35:28.745Z,25.84
2018-06-08T20:37:57.147Z,25.93
2018-06-08T20:40:25.548Z,25.98
2018-06-08T20:42:53.999Z,26.10
2018-06-08T20:45:22.453Z,26.11
2018-06-08T20:47:51.039Z,25.89
2018-06-08T20:50:19.693Z,25.69
2018-06-08T20:52:48.123Z,25.57
2018-06-08T20:55:16.578Z,25.60
2018-06-08T20:57:56.082Z,25.61
2018-06-08T21:00:24.612Z,25.53
2018-06-08T21:02:53.029Z,25.58
2018-06-08T21:05:21.827Z,25.54
2018-06-08T21:07:50.258Z,25.60
2018-06-08T21:10:18.719Z,25.63
2018-06-08T21:12:47.176Z,25.51
2018-06-08T21:15:15.657Z,25.36
2018-06-08T21:17:44.200Z,25.25
2018-06-08T21:20:12.635Z,25.38
2018-06-08T21:22:41.098Z,25.37
2018-06-08T21:25:09.638Z,25.37
2018-06-08T21:27:38.067Z,25.31
2018-06-08T21:30:06.803Z,25.41
2018-06-08T21:32:35.393Z,25.25
2018-06-08T21:35:03.822Z,25.39
2018-06-08T21:37:32.259Z,25.50
2018-06-08T21:40:00.867Z,25.42
2018-06-08T21:42:29.268Z,25.37
2018-06-08T21:44:57.667Z,25.31
2018-06-08T21:47:26.088Z,25.42
2018-06-08T21:49:54.687Z,25.46
2018-06-08T21:52:23.247Z,25.35
2018-06-08T21:54:51.706Z,25.47
2018-06-08T21:57:20.159Z,25.38
2018-06-08T21:59:48.575Z,25.37
2018-06-08T22:02:17.018Z,25.28
2018-06-08T22:04:45.621Z,25.36
2018-06-08T22:07:14.293Z,25.33
2018-06-08T22:09:42.823Z,25.33
2018-06-08T22:12:11.266Z,25.34
2018-06-08T22:14:39.723Z,25.30
2018-06-08T22:17:08.147Z,25.22
2018-06-08T22:19:36.791Z,25.19
2018-06-08T22:22:05.279Z,25.13
2018-06-08T22:24:33.788Z,25.01
2018-06-08T22:27:02.478Z,25.05
2018-06-08T22:29:30.958Z,24.91
2018-06-08T22:31:59.371Z,24.80
2018-06-08T22:34:28.057Z,24.95
2018-06-08T22:36:56.663Z,24.91
2018-06-08T22:39:25.132Z,24.69
2018-06-08T22:41:53.563Z,24.69
2018-06-08T22:44:21.999Z,24.64
2018-06-08T22:46:50.486Z,24.51
2018-06-08T22:49:18.908Z,24.49
2018-06-08T22:51:47.432Z,24.36
2018-06-08T22:54:16.153Z,24.25
2018-06-08T22:56:44.665Z,24.31
2018-06-08T22:59:13.346Z,24.25
2018-06-08T23:01:42.079Z,24.30
2018-06-08T23:04:10.540Z,24.27
2018-06-08T23:06:38.983Z,24.24
2018-06-08T23:09:08.651Z,24.29
2018-06-08T23:11:37.575Z,24.27
2018-06-08T23:14:06.011Z,24.28
2018-06-08T23:16:34.427Z,24.22
2018-06-08T23:19:02.899Z,24.16
2018-06-08T23:21:31.588Z,24.21
2018-06-08T23:23:59.999Z,24.27
2018-06-08T23:26:28.432Z,24.18
2018-06-08T23:28:56.866Z,24.12
2018-06-08T23:31:25.455Z,23.96
2018-06-08T23:33:54.164Z,23.96
2018-06-08T23:36:22.803Z,23.84
2018-06-08T23:38:51.479Z,23.92
2018-06-08T23:41:20.103Z,23.91
2018-06-08T23:43:48.589Z,23.85
2018-06-08T23:46:17.075Z,23.92
2018-06-08T23:48:45.600Z,23.87
2018-06-08T23:51:14.059Z,23.85
2018-06-08T23:53:42.524Z,23.84
2018-06-08T23:56:11.409Z,23.81
2018-06-08T23:58:39.914Z,23.63
